Chickasha, OK

11:59 AM CDT on August 27, 2016 (GMT -0500)
Chickasha Municipal

Weather History for KCHK - February, 2013

Change the Weather History Date:

Wednesday, February 27, 2013

  Actual Average Record
Temperature  
Mean Temperature 38 °F -  
Max Temperature 46 °F 61 °F 82 °F (2011)
Min Temperature 30 °F 35 °F 10 °F (2002)
Degree Days  
Heating Degree Days 27    
Moisture  
Dew Point 30 °F    
Average Humidity 79    
Maximum Humidity 93    
Minimum Humidity 53    
Precipitation  
Precipitation 0.00 in - - ()
Sea Level Pressure  
Sea Level Pressure 30.12 in    
Wind  
Wind Speed 10 mph (NNW)    
Max Wind Speed 26 mph    
Max Gust Speed 33 mph    
Visibility 10 miles    
Events      
Averages and records for this station are not official NWS values.
T = Trace of Precipitation, MM = Missing Value Source: NWS Daily Summary

Daily Weather History Graph

Daily Weather History Graph

Search for Another Location

Airport or City:

Trip Planner

Search our weather history database for the weather conditions in past years. The results will help you decide how hot, cold, wet, or windy it might be!

Date:

Astronomy

Feb. 27, 2013 Rise Set
Actual Time 7:03 AM CST 6:25 PM CST
Civil Twilight 6:38 AM CST 6:51 PM CST
Nautical Twilight 6:08 AM CST 7:20 PM CST
Astronomical Twilight 5:39 AM CST 7:50 PM CST
Moon 8:41 PM CST 7:46 AM CST
Length of Visible Light 12h 13m
Length of Day
11h 22m
Waning Gibbous, 96% of the Moon is Illuminated
Feb 27
Waning Gibbous
Mar 4
Last Quarter
Mar 11
New
Mar 19
First Quarter
Mar 27
Full

Hourly Weather History & Observations

Time (CST) Temp. Windchill Dew Point Humidity Pressure Visibility Wind Dir Wind Speed Gust Speed Precip Events Conditions
12:15 AM 33.8 °F 29.6 °F 32.0 °F 93% 29.92 in 10.0 mi NNW 4.6 mph - N/A   Overcast
12:35 AM 33.8 °F 29.6 °F 32.0 °F 93% 29.93 in 10.0 mi NNW 4.6 mph - N/A   Mostly Cloudy
12:55 AM 33.8 °F 28.6 °F 32.0 °F 93% 29.94 in 10.0 mi NNW 5.8 mph - N/A   Overcast
1:15 AM 33.8 °F 30.8 °F 32.0 °F 93% 29.97 in 10.0 mi WNW 3.5 mph - N/A   Overcast
1:35 AM 33.8 °F 29.6 °F 32.0 °F 93% 29.97 in 10.0 mi NNW 4.6 mph - N/A   Overcast
1:55 AM 33.8 °F 27.0 °F 32.0 °F 93% 29.97 in 10.0 mi North 8.1 mph - N/A   Overcast
2:15 AM 33.8 °F 25.8 °F 32.0 °F 93% 29.98 in 10.0 mi North 10.4 mph - N/A   Overcast
2:35 AM 33.8 °F 27.0 °F 32.0 °F 93% 29.98 in 10.0 mi North 8.1 mph - N/A   Overcast
2:55 AM 33.8 °F 27.7 °F 32.0 °F 93% 29.97 in 10.0 mi North 6.9 mph - N/A   Overcast
3:15 AM 33.8 °F 25.8 °F 32.0 °F 93% 29.97 in 10.0 mi North 10.4 mph - N/A   Overcast
3:35 AM 33.8 °F 25.8 °F 32.0 °F 93% 29.98 in 10.0 mi NNW 10.4 mph - N/A   Overcast
3:55 AM 33.8 °F 25.3 °F 30.2 °F 87% 29.99 in 10.0 mi North 11.5 mph - N/A   Overcast
4:15 AM 33.8 °F 27.0 °F 30.2 °F 87% 29.99 in 10.0 mi North 8.1 mph - N/A   Overcast
4:35 AM 33.8 °F 28.6 °F 32.0 °F 93% 30.00 in 10.0 mi NW 5.8 mph - N/A   Overcast
4:55 AM 32.0 °F 26.4 °F 30.2 °F 93% 30.01 in 10.0 mi NNW 5.8 mph - N/A   Mostly Cloudy
5:15 AM 32.0 °F 26.4 °F 28.4 °F 87% 30.02 in 10.0 mi NW 5.8 mph - N/A   Scattered Clouds
5:35 AM 30.2 °F 23.4 °F 28.4 °F 93% 30.03 in 10.0 mi WNW 6.9 mph - N/A   Clear
5:55 AM 30.2 °F 24.3 °F 28.4 °F 93% 30.04 in 10.0 mi West 5.8 mph - N/A   Clear
6:15 AM 30.2 °F 23.4 °F 28.4 °F 93% 30.05 in 10.0 mi NW 6.9 mph - N/A   Scattered Clouds
6:55 AM 30.2 °F 25.4 °F 28.4 °F 93% 30.06 in 10.0 mi WNW 4.6 mph - N/A   Clear
7:15 AM 30.2 °F 23.4 °F 28.4 °F 93% 30.07 in 10.0 mi WNW 6.9 mph - N/A   Clear
7:35 AM 30.2 °F 24.3 °F 28.4 °F 93% 30.07 in 10.0 mi West 5.8 mph - N/A   Clear
7:55 AM 30.2 °F 23.4 °F 28.4 °F 93% 30.09 in 10.0 mi West 6.9 mph - N/A   Clear
8:15 AM 32.0 °F 24.2 °F 30.2 °F 93% 30.10 in 10.0 mi West 9.2 mph - N/A   Clear
8:35 AM 32.0 °F 24.8 °F 28.4 °F 87% 30.11 in 10.0 mi West 8.1 mph - N/A   Clear
8:55 AM 33.8 °F 27.0 °F 30.2 °F 87% 30.12 in 10.0 mi WNW 8.1 mph - N/A   Clear
9:15 AM 33.8 °F 26.4 °F 30.2 °F 87% 30.12 in 10.0 mi WNW 9.2 mph - N/A   Clear
9:35 AM 35.6 °F 29.9 °F 30.2 °F 81% 30.12 in 10.0 mi NW 6.9 mph - N/A   Clear
9:55 AM 37.4 °F 30.3 °F 32.0 °F 81% 30.12 in 10.0 mi NNW 10.4 mph - N/A   Clear
10:15 AM 39.2 °F 32.0 °F 30.2 °F 70% 30.12 in 10.0 mi NNW 11.5 mph - N/A   Clear
10:55 AM 42.8 °F 35.4 °F 30.2 °F 61% 30.13 in 10.0 mi NNW 15.0 mph - N/A   Clear
11:15 AM 42.8 °F 34.5 °F 30.2 °F 61% 30.14 in 10.0 mi NNW 18.4 mph 23.0 mph N/A   Clear
11:35 AM 42.8 °F 34.3 °F 30.2 °F 61% 30.14 in 10.0 mi NNW 19.6 mph 25.3 mph N/A   Clear
11:55 AM 42.8 °F 34.5 °F 30.2 °F 61% 30.14 in 10.0 mi NNW 18.4 mph - N/A   Clear
12:15 PM 42.8 °F 34.5 °F 30.2 °F 61% 30.15 in 10.0 mi NNW 18.4 mph - N/A   Clear
12:35 PM 44.6 °F 36.1 °F 28.4 °F 53% 30.15 in 10.0 mi North 21.9 mph - N/A   Clear
12:55 PM 42.8 °F 33.8 °F 28.4 °F 57% 30.15 in 10.0 mi North 21.9 mph - N/A   Clear
1:15 PM 44.6 °F 36.4 °F 30.2 °F 57% 30.14 in 10.0 mi NNW 20.7 mph 26.5 mph N/A   Clear
1:35 PM 46.4 °F 39.2 °F 30.2 °F 53% 30.15 in 10.0 mi NNW 18.4 mph - N/A   Clear
1:55 PM 46.4 °F 37.9 °F 32.0 °F 57% 30.15 in 10.0 mi NNW 25.3 mph 28.8 mph N/A   Clear
2:15 PM 46.4 °F 38.1 °F 30.2 °F 53% 30.15 in 10.0 mi NNW 24.2 mph 28.8 mph N/A   Clear
2:35 PM 46.4 °F 38.3 °F 30.2 °F 53% 30.14 in 10.0 mi NNW 23.0 mph 28.8 mph N/A   Clear
2:55 PM 46.4 °F 37.7 °F 30.2 °F 53% 30.15 in 10.0 mi NNW 26.5 mph 33.4 mph N/A   Clear
3:15 PM 46.4 °F 38.1 °F 30.2 °F 53% 30.15 in 10.0 mi NNW 24.2 mph 32.2 mph N/A   Clear
3:35 PM 46.4 °F 38.1 °F 30.2 °F 53% 30.17 in 10.0 mi NNW 24.2 mph 29.9 mph N/A   Clear
3:55 PM 46.4 °F 38.7 °F 30.2 °F 53% 30.17 in 10.0 mi NNW 20.7 mph 29.9 mph N/A   Clear
4:15 PM 44.6 °F 35.9 °F 30.2 °F 57% 30.17 in 10.0 mi NNW 23.0 mph 27.6 mph N/A   Clear
4:35 PM 42.8 °F 32.9 °F 28.4 °F 57% 30.17 in 10.0 mi North 26.5 mph 33.4 mph N/A   Clear
4:55 PM 42.8 °F 33.3 °F 30.2 °F 61% 30.17 in 10.0 mi NNW 24.2 mph - N/A   Clear
5:15 PM 42.8 °F 33.3 °F 30.2 °F 61% 30.17 in 10.0 mi NNW 24.2 mph 29.9 mph N/A   Clear
5:35 PM 41.0 °F 31.4 °F 30.2 °F 65% 30.18 in 10.0 mi NNW 21.9 mph 28.8 mph N/A   Clear
5:55 PM 41.0 °F 32.5 °F 30.2 °F 65% 30.19 in 10.0 mi NNW 17.3 mph 23.0 mph N/A   Clear
6:15 PM 39.2 °F 29.0 °F 28.4 °F 65% 30.19 in 10.0 mi NNW 21.9 mph 28.8 mph N/A   Clear
6:35 PM 37.4 °F 27.2 °F 30.2 °F 75% 30.20 in 10.0 mi NNW 19.6 mph 24.2 mph N/A   Clear
6:55 PM 37.4 °F 27.8 °F 30.2 °F 75% 30.21 in 10.0 mi NNW 17.3 mph - N/A   Clear
7:15 PM 35.6 °F 27.5 °F 30.2 °F 81% 30.22 in 10.0 mi NNW 11.5 mph - N/A   Clear
7:35 PM 35.6 °F 27.5 °F 30.2 °F 81% 30.22 in 10.0 mi NNW 11.5 mph - N/A   Clear
8:15 PM 33.8 °F 27.0 °F 30.2 °F 87% 30.23 in 10.0 mi NNW 8.1 mph - N/A   Clear
8:35 PM 32.0 °F 24.8 °F 28.4 °F 87% 30.23 in 10.0 mi NW 8.1 mph - N/A   Clear
8:55 PM 32.0 °F 25.6 °F 28.4 °F 87% 30.24 in 10.0 mi NW 6.9 mph - N/A   Clear
9:15 PM 33.8 °F 25.8 °F 32.0 °F 93% 30.22 in 10.0 mi NW 10.4 mph - N/A   Clear
9:35 PM 32.0 °F 23.6 °F 30.2 °F 93% 30.22 in 10.0 mi NW 10.4 mph - N/A   Clear
9:55 PM 32.0 °F 23.6 °F 30.2 °F 93% 30.23 in 10.0 mi NW 10.4 mph - N/A   Clear
10:15 PM 32.0 °F 24.8 °F 30.2 °F 93% 30.23 in 10.0 mi NW 8.1 mph - N/A   Clear
10:35 PM 32.0 °F 24.2 °F 30.2 °F 93% 30.24 in 10.0 mi NW 9.2 mph - N/A   Clear
10:55 PM 32.0 °F 23.6 °F 30.2 °F 93% 30.23 in 10.0 mi NW 10.4 mph - N/A   Clear
11:15 PM 32.0 °F 24.2 °F 30.2 °F 93% 30.23 in 10.0 mi NW 9.2 mph - N/A   Clear
11:35 PM 32.0 °F 24.2 °F 30.2 °F 93% 30.23 in 10.0 mi NW 9.2 mph - N/A   Scattered Clouds
11:55 PM 30.2 °F 23.4 °F 28.4 °F 93% 30.23 in 10.0 mi WNW 6.9 mph - N/A   Scattered Clouds